Accueil
METAR-TAF:

METAR-TAF

Aéroports :

Aéroport d'Oujda-Angads

Oujda, Maroc

latitude: 34-47N, longitude: 001-56W, altitude: 468 m

Observation

Le bulletin a été fait il y a 36 minutes, à 21:30 UTC
Vent 2 kt de direction variable
Température 13°C
Humidité 88%
Pression 1029 hPa
Visibilité: 8000 m
Nuages fragmentés à une hauteur de 1300 ft

METAR: GMFO 212130Z VRB02KT 8000 BKN013 13/11 Q1029 NOSIG

Heure: 23:06 (22:06 UTC)

Prévision

Le bulletin a été fait il y a 5 heures et 6 minutes, à 17:00 UTC
Prévision valable du 21 à 18 UTC au 22 à 24 UTC
Vent 11 kt de nord/nord-ouest
Visibilité 10 km ou plus
Nuages fragmentés à une hauteur de 2600 ft
Probabilité 30% :
Temporairement
du 21 à 23 UTC au 22 à 08 UTC
Visibilité: 2000 m
Nuages fragmentés à une hauteur de 600 ft
brume

TAF: GMFO 211700Z 2118/2224 33011KT 9999 BKN026 PROB30 TEMPO 2123/2208 2000 BR BKN006

Observations et prévisions météorologiques de plus de 4000 aéroports (messages METAR et TAF).

Les stations disponibles sont représentées par des disques jaunes et rouges sur la carte.

Passer la souris dessus pour voir le nom de la station.

Cliquer dessus pour voir les observations et prévisions météorologiques.

Pour changer de carte: cliquez sur les boutons verts avec une croix noire pour zoomer, sur le bouton vert avec un tiret pour effectuer un zoom arrière, ou sur les flèches vertes pour les cartes adjacentes.


METAR-TAF: